<?xml version="1.0" encoding="UTF-8" standalone="no" ?>
<gpx xmlns="http://www.topografix.com/GPX/1/1" xmlns:xsi="http://www.w3.org/2001/XMLSchema-instance" xsi:schemaLocation="http://www.topografix.com/GPX/1/1 http://www.topografix.com/GPX/1/1/gpx.xsd" version="1.1" creator="VisuGPX - https://www.visugpx.com">
  <metadata>
    <name>Vallon de Prébayon-Séguret</name>
    <desc><![CDATA[Niveau peu difficile]]></desc>
  </metadata>
  <trk>
    <name><![CDATA[Vallon de Prébayon-Séguret - PD]]></name>
    <trkseg>
      <trkpt lat="44.20731" lon="5.02314">
        <ele>235</ele>
        <time>2021-04-30T07:00:00.30Z</time>
      </trkpt>
      <trkpt lat="44.20738" lon="5.02331">
        <ele>240</ele>
        <time>2021-04-30T07:00:28.14Z</time>
      </trkpt>
      <trkpt lat="44.20687" lon="5.02287">
        <ele>249</ele>
        <time>2021-04-30T07:02:14.44Z</time>
      </trkpt>
      <trkpt lat="44.20671" lon="5.02283">
        <ele>250</ele>
        <time>2021-04-30T07:02:42.22Z</time>
      </trkpt>
      <trkpt lat="44.20664" lon="5.02277">
        <ele>250</ele>
        <time>2021-04-30T07:02:55.60Z</time>
      </trkpt>
      <trkpt lat="44.20642" lon="5.02274">
        <ele>252</ele>
        <time>2021-04-30T07:03:30.16Z</time>
      </trkpt>
      <trkpt lat="44.20609" lon="5.0228">
        <ele>255</ele>
        <time>2021-04-30T07:04:21.84Z</time>
      </trkpt>
      <trkpt lat="44.20588" lon="5.02302">
        <ele>256</ele>
        <time>2021-04-30T07:04:59.09Z</time>
      </trkpt>
      <trkpt lat="44.20551" lon="5.02313">
        <ele>256</ele>
        <time>2021-04-30T07:05:50.59Z</time>
      </trkpt>
      <trkpt lat="44.20525" lon="5.02307">
        <ele>254</ele>
        <time>2021-04-30T07:06:28.67Z</time>
      </trkpt>
      <trkpt lat="44.20491" lon="5.02316">
        <ele>251</ele>
        <time>2021-04-30T07:07:18.94Z</time>
      </trkpt>
      <trkpt lat="44.2044" lon="5.02347">
        <ele>245</ele>
        <time>2021-04-30T07:08:43.82Z</time>
      </trkpt>
      <trkpt lat="44.20425" lon="5.02348">
        <ele>243</ele>
        <time>2021-04-30T07:09:05.53Z</time>
      </trkpt>
      <trkpt lat="44.20386" lon="5.02433">
        <ele>233</ele>
        <time>2021-04-30T07:10:57.66Z</time>
      </trkpt>
      <trkpt lat="44.20385" lon="5.02408">
        <ele>231</ele>
        <time>2021-04-30T07:11:25.50Z</time>
      </trkpt>
      <trkpt lat="44.20308" lon="5.02397">
        <ele>220</ele>
        <time>2021-04-30T07:13:23.22Z</time>
      </trkpt>
      <trkpt lat="44.20279" lon="5.02405">
        <ele>218</ele>
        <time>2021-04-30T07:14:04.13Z</time>
      </trkpt>
      <trkpt lat="44.20244" lon="5.02349">
        <ele>221</ele>
        <time>2021-04-30T07:15:35.10Z</time>
      </trkpt>
      <trkpt lat="44.20234" lon="5.02342">
        <ele>223</ele>
        <time>2021-04-30T07:15:53.74Z</time>
      </trkpt>
      <trkpt lat="44.20187" lon="5.02362">
        <ele>230</ele>
        <time>2021-04-30T07:17:15.99Z</time>
      </trkpt>
      <trkpt lat="44.20119" lon="5.02367">
        <ele>235</ele>
        <time>2021-04-30T07:18:50.35Z</time>
      </trkpt>
      <trkpt lat="44.20097" lon="5.02362">
        <ele>234</ele>
        <time>2021-04-30T07:19:21.31Z</time>
      </trkpt>
      <trkpt lat="44.20014" lon="5.02316">
        <ele>231</ele>
        <time>2021-04-30T07:21:24.61Z</time>
      </trkpt>
      <trkpt lat="44.19958" lon="5.02296">
        <ele>232</ele>
        <time>2021-04-30T07:22:49.19Z</time>
      </trkpt>
      <trkpt lat="44.19899" lon="5.02299">
        <ele>235</ele>
        <time>2021-04-30T07:24:15.83Z</time>
      </trkpt>
      <trkpt lat="44.19871" lon="5.0231">
        <ele>235</ele>
        <time>2021-04-30T07:24:56.40Z</time>
      </trkpt>
      <trkpt lat="44.1983" lon="5.02312">
        <ele>236</ele>
        <time>2021-04-30T07:25:53.44Z</time>
      </trkpt>
      <trkpt lat="44.19714" lon="5.02338">
        <ele>233</ele>
        <time>2021-04-30T07:28:36.10Z</time>
      </trkpt>
      <trkpt lat="44.19712" lon="5.02333">
        <ele>232</ele>
        <time>2021-04-30T07:28:41.85Z</time>
      </trkpt>
      <trkpt lat="44.19575" lon="5.02346">
        <ele>227</ele>
        <time>2021-04-30T07:31:59.35Z</time>
      </trkpt>
      <trkpt lat="44.19448" lon="5.0233">
        <ele>239</ele>
        <time>2021-04-30T07:35:20.83Z</time>
      </trkpt>
      <trkpt lat="44.1936" lon="5.02281">
        <ele>244</ele>
        <time>2021-04-30T07:37:37.15Z</time>
      </trkpt>
      <trkpt lat="44.19319" lon="5.02276">
        <ele>242</ele>
        <time>2021-04-30T07:38:33.42Z</time>
      </trkpt>
      <trkpt lat="44.19272" lon="5.02261">
        <ele>244</ele>
        <time>2021-04-30T07:40:03.94Z</time>
      </trkpt>
      <trkpt lat="44.19265" lon="5.02307">
        <ele>253</ele>
        <time>2021-04-30T07:41:53.53Z</time>
      </trkpt>
      <trkpt lat="44.19246" lon="5.0233">
        <ele>261</ele>
        <time>2021-04-30T07:43:10.45Z</time>
      </trkpt>
      <trkpt lat="44.19192" lon="5.02368">
        <ele>276</ele>
        <time>2021-04-30T07:44:49Z</time>
      </trkpt>
      <trkpt lat="44.19108" lon="5.02361">
        <ele>275</ele>
        <time>2021-04-30T07:46:44.61Z</time>
      </trkpt>
      <trkpt lat="44.19094" lon="5.0237">
        <ele>274</ele>
        <time>2021-04-30T07:47:05.56Z</time>
      </trkpt>
      <trkpt lat="44.19143" lon="5.02368">
        <ele>273</ele>
        <time>2021-04-30T07:48:21.33Z</time>
      </trkpt>
      <trkpt lat="44.19218" lon="5.02383">
        <ele>283</ele>
        <time>2021-04-30T07:50:52.98Z</time>
      </trkpt>
      <trkpt lat="44.19228" lon="5.0239">
        <ele>285</ele>
        <time>2021-04-30T07:51:15.75Z</time>
      </trkpt>
      <trkpt lat="44.19223" lon="5.02415">
        <ele>289</ele>
        <time>2021-04-30T07:51:53.29Z</time>
      </trkpt>
      <trkpt lat="44.19228" lon="5.02433">
        <ele>291</ele>
        <time>2021-04-30T07:52:19.24Z</time>
      </trkpt>
      <trkpt lat="44.19292" lon="5.02461">
        <ele>299</ele>
        <time>2021-04-30T07:54:22.29Z</time>
      </trkpt>
      <trkpt lat="44.19313" lon="5.02512">
        <ele>305</ele>
        <time>2021-04-30T07:55:45.31Z</time>
      </trkpt>
      <trkpt lat="44.19355" lon="5.02544">
        <ele>312</ele>
        <time>2021-04-30T07:57:19.28Z</time>
      </trkpt>
      <trkpt lat="44.1935" lon="5.02561">
        <ele>314</ele>
        <time>2021-04-30T07:57:44.31Z</time>
      </trkpt>
      <trkpt lat="44.19311" lon="5.02586">
        <ele>320</ele>
        <time>2021-04-30T07:59:00.31Z</time>
      </trkpt>
      <trkpt lat="44.19261" lon="5.02576">
        <ele>325</ele>
        <time>2021-04-30T08:00:24.41Z</time>
      </trkpt>
      <trkpt lat="44.19218" lon="5.02542">
        <ele>330</ele>
        <time>2021-04-30T08:01:47.71Z</time>
      </trkpt>
      <trkpt lat="44.19192" lon="5.02538">
        <ele>333</ele>
        <time>2021-04-30T08:02:39.58Z</time>
      </trkpt>
      <trkpt lat="44.1918" lon="5.02555">
        <ele>336</ele>
        <time>2021-04-30T08:03:20.31Z</time>
      </trkpt>
      <trkpt lat="44.19186" lon="5.02577">
        <ele>339</ele>
        <time>2021-04-30T08:04:05.13Z</time>
      </trkpt>
      <trkpt lat="44.1922" lon="5.02623">
        <ele>352</ele>
        <time>2021-04-30T08:06:29.16Z</time>
      </trkpt>
      <trkpt lat="44.19217" lon="5.02634">
        <ele>354</ele>
        <time>2021-04-30T08:06:55.71Z</time>
      </trkpt>
      <trkpt lat="44.19176" lon="5.02638">
        <ele>365</ele>
        <time>2021-04-30T08:08:53.12Z</time>
      </trkpt>
      <trkpt lat="44.1917" lon="5.02649">
        <ele>368</ele>
        <time>2021-04-30T08:09:21.29Z</time>
      </trkpt>
      <trkpt lat="44.19143" lon="5.0265">
        <ele>374</ele>
        <time>2021-04-30T08:10:28.48Z</time>
      </trkpt>
      <trkpt lat="44.1913" lon="5.0266">
        <ele>377</ele>
        <time>2021-04-30T08:11:05.79Z</time>
      </trkpt>
      <trkpt lat="44.19077" lon="5.02679">
        <ele>389</ele>
        <time>2021-04-30T08:13:12.50Z</time>
      </trkpt>
      <trkpt lat="44.19051" lon="5.02705">
        <ele>394</ele>
        <time>2021-04-30T08:14:09.20Z</time>
      </trkpt>
      <trkpt lat="44.19043" lon="5.02707">
        <ele>396</ele>
        <time>2021-04-30T08:14:23.42Z</time>
      </trkpt>
      <trkpt lat="44.19015" lon="5.02796">
        <ele>402</ele>
        <time>2021-04-30T08:16:06.40Z</time>
      </trkpt>
      <trkpt lat="44.18978" lon="5.02789">
        <ele>400</ele>
        <time>2021-04-30T08:17:00.55Z</time>
      </trkpt>
      <trkpt lat="44.18935" lon="5.02797">
        <ele>394</ele>
        <time>2021-04-30T08:18:09.92Z</time>
      </trkpt>
      <trkpt lat="44.18915" lon="5.0276">
        <ele>388</ele>
        <time>2021-04-30T08:19:06.88Z</time>
      </trkpt>
      <trkpt lat="44.18875" lon="5.02751">
        <ele>381</ele>
        <time>2021-04-30T08:20:07.24Z</time>
      </trkpt>
      <trkpt lat="44.1883" lon="5.02767">
        <ele>378</ele>
        <time>2021-04-30T08:21:11.87Z</time>
      </trkpt>
      <trkpt lat="44.18784" lon="5.02771">
        <ele>377</ele>
        <time>2021-04-30T08:22:15.53Z</time>
      </trkpt>
      <trkpt lat="44.18749" lon="5.02733">
        <ele>374</ele>
        <time>2021-04-30T08:23:17.41Z</time>
      </trkpt>
      <trkpt lat="44.18713" lon="5.02711">
        <ele>371</ele>
        <time>2021-04-30T08:24:13.60Z</time>
      </trkpt>
      <trkpt lat="44.18675" lon="5.02657">
        <ele>367</ele>
        <time>2021-04-30T08:25:31.82Z</time>
      </trkpt>
      <trkpt lat="44.18634" lon="5.02639">
        <ele>362</ele>
        <time>2021-04-30T08:26:37.79Z</time>
      </trkpt>
      <trkpt lat="44.18623" lon="5.02652">
        <ele>360</ele>
        <time>2021-04-30T08:27:01.06Z</time>
      </trkpt>
      <trkpt lat="44.18655" lon="5.02716">
        <ele>351</ele>
        <time>2021-04-30T08:28:28.43Z</time>
      </trkpt>
      <trkpt lat="44.18668" lon="5.02758">
        <ele>347</ele>
        <time>2021-04-30T08:29:16.78Z</time>
      </trkpt>
      <trkpt lat="44.18698" lon="5.02791">
        <ele>343</ele>
        <time>2021-04-30T08:30:13.11Z</time>
      </trkpt>
      <trkpt lat="44.18698" lon="5.02847">
        <ele>339</ele>
        <time>2021-04-30T08:31:13.07Z</time>
      </trkpt>
      <trkpt lat="44.18706" lon="5.02886">
        <ele>335</ele>
        <time>2021-04-30T08:31:58.11Z</time>
      </trkpt>
      <trkpt lat="44.18741" lon="5.02914">
        <ele>329</ele>
        <time>2021-04-30T08:32:57.32Z</time>
      </trkpt>
      <trkpt lat="44.18816" lon="5.02943">
        <ele>323</ele>
        <time>2021-04-30T08:34:46.36Z</time>
      </trkpt>
      <trkpt lat="44.18848" lon="5.0295">
        <ele>322</ele>
        <time>2021-04-30T08:35:31.36Z</time>
      </trkpt>
      <trkpt lat="44.1886" lon="5.02963">
        <ele>322</ele>
        <time>2021-04-30T08:35:51.79Z</time>
      </trkpt>
      <trkpt lat="44.18871" lon="5.02997">
        <ele>321</ele>
        <time>2021-04-30T08:36:28.70Z</time>
      </trkpt>
      <trkpt lat="44.18885" lon="5.03009">
        <ele>320</ele>
        <time>2021-04-30T08:36:51.99Z</time>
      </trkpt>
      <trkpt lat="44.18923" lon="5.03012">
        <ele>318</ele>
        <time>2021-04-30T08:37:45.11Z</time>
      </trkpt>
      <trkpt lat="44.1897" lon="5.03054">
        <ele>321</ele>
        <time>2021-04-30T08:39:14.88Z</time>
      </trkpt>
      <trkpt lat="44.19011" lon="5.03071">
        <ele>327</ele>
        <time>2021-04-30T08:40:31.23Z</time>
      </trkpt>
      <trkpt lat="44.19033" lon="5.03073">
        <ele>330</ele>
        <time>2021-04-30T08:41:11.29Z</time>
      </trkpt>
      <trkpt lat="44.19066" lon="5.03059">
        <ele>333</ele>
        <time>2021-04-30T08:41:59.01Z</time>
      </trkpt>
      <trkpt lat="44.19059" lon="5.03082">
        <ele>333</ele>
        <time>2021-04-30T08:42:23.38Z</time>
      </trkpt>
      <trkpt lat="44.19021" lon="5.03098">
        <ele>328</ele>
        <time>2021-04-30T08:43:34.28Z</time>
      </trkpt>
      <trkpt lat="44.18987" lon="5.03103">
        <ele>319</ele>
        <time>2021-04-30T08:44:33.67Z</time>
      </trkpt>
      <trkpt lat="44.18926" lon="5.03059">
        <ele>309</ele>
        <time>2021-04-30T08:46:08.23Z</time>
      </trkpt>
      <trkpt lat="44.18927" lon="5.03072">
        <ele>310</ele>
        <time>2021-04-30T08:46:21.08Z</time>
      </trkpt>
      <trkpt lat="44.18968" lon="5.03113">
        <ele>315</ele>
        <time>2021-04-30T08:47:43.15Z</time>
      </trkpt>
      <trkpt lat="44.18977" lon="5.03141">
        <ele>313</ele>
        <time>2021-04-30T08:48:18.35Z</time>
      </trkpt>
      <trkpt lat="44.18905" lon="5.03183">
        <ele>286</ele>
        <time>2021-04-30T08:50:42.72Z</time>
      </trkpt>
      <trkpt lat="44.18916" lon="5.03203">
        <ele>282</ele>
        <time>2021-04-30T08:51:16.93Z</time>
      </trkpt>
      <trkpt lat="44.18939" lon="5.03271">
        <ele>282</ele>
        <time>2021-04-30T08:52:32.40Z</time>
      </trkpt>
      <trkpt lat="44.18959" lon="5.03304">
        <ele>283</ele>
        <time>2021-04-30T08:53:15.66Z</time>
      </trkpt>
      <trkpt lat="44.18979" lon="5.03432">
        <ele>275</ele>
        <time>2021-04-30T08:55:25.52Z</time>
      </trkpt>
      <trkpt lat="44.19014" lon="5.03542">
        <ele>280</ele>
        <time>2021-04-30T08:57:44.75Z</time>
      </trkpt>
      <trkpt lat="44.19046" lon="5.03697">
        <ele>293</ele>
        <time>2021-04-30T09:00:58.38Z</time>
      </trkpt>
      <trkpt lat="44.19041" lon="5.03723">
        <ele>294</ele>
        <time>2021-04-30T09:01:30.56Z</time>
      </trkpt>
      <trkpt lat="44.19047" lon="5.03843">
        <ele>303</ele>
        <time>2021-04-30T09:03:54.93Z</time>
      </trkpt>
      <trkpt lat="44.19044" lon="5.03861">
        <ele>305</ele>
        <time>2021-04-30T09:04:17.94Z</time>
      </trkpt>
      <trkpt lat="44.19027" lon="5.03905">
        <ele>308</ele>
        <time>2021-04-30T09:05:11.91Z</time>
      </trkpt>
      <trkpt lat="44.1899" lon="5.0393">
        <ele>309</ele>
        <time>2021-04-30T09:06:09.05Z</time>
      </trkpt>
      <trkpt lat="44.1898" lon="5.03962">
        <ele>308</ele>
        <time>2021-04-30T09:06:43.48Z</time>
      </trkpt>
      <trkpt lat="44.18984" lon="5.03996">
        <ele>308</ele>
        <time>2021-04-30T09:07:16.85Z</time>
      </trkpt>
      <trkpt lat="44.19004" lon="5.04011">
        <ele>308</ele>
        <time>2021-04-30T09:07:52.26Z</time>
      </trkpt>
      <trkpt lat="44.19041" lon="5.04024">
        <ele>312</ele>
        <time>2021-04-30T09:08:52.84Z</time>
      </trkpt>
      <trkpt lat="44.19104" lon="5.04091">
        <ele>318</ele>
        <time>2021-04-30T09:10:54.48Z</time>
      </trkpt>
      <trkpt lat="44.19105" lon="5.04102">
        <ele>319</ele>
        <time>2021-04-30T09:11:06.37Z</time>
      </trkpt>
      <trkpt lat="44.19134" lon="5.04171">
        <ele>320</ele>
        <time>2021-04-30T09:12:33.34Z</time>
      </trkpt>
      <trkpt lat="44.19141" lon="5.04219">
        <ele>324</ele>
        <time>2021-04-30T09:13:32.44Z</time>
      </trkpt>
      <trkpt lat="44.1913" lon="5.04292">
        <ele>329</ele>
        <time>2021-04-30T09:14:45.60Z</time>
      </trkpt>
      <trkpt lat="44.19094" lon="5.04394">
        <ele>324</ele>
        <time>2021-04-30T09:16:38.73Z</time>
      </trkpt>
      <trkpt lat="44.19088" lon="5.04428">
        <ele>323</ele>
        <time>2021-04-30T09:17:17.45Z</time>
      </trkpt>
      <trkpt lat="44.19102" lon="5.04588">
        <ele>333</ele>
        <time>2021-04-30T09:20:24.54Z</time>
      </trkpt>
      <trkpt lat="44.19091" lon="5.04671">
        <ele>339</ele>
        <time>2021-04-30T09:21:51.35Z</time>
      </trkpt>
      <trkpt lat="44.19048" lon="5.04743">
        <ele>336</ele>
        <time>2021-04-30T09:23:24.81Z</time>
      </trkpt>
      <trkpt lat="44.19042" lon="5.04764">
        <ele>335</ele>
        <time>2021-04-30T09:23:47.08Z</time>
      </trkpt>
      <trkpt lat="44.19042" lon="5.04783">
        <ele>336</ele>
        <time>2021-04-30T09:24:08.50Z</time>
      </trkpt>
      <trkpt lat="44.1906" lon="5.04816">
        <ele>340</ele>
        <time>2021-04-30T09:24:56.28Z</time>
      </trkpt>
      <trkpt lat="44.19266" lon="5.04988">
        <ele>361</ele>
        <time>2021-04-30T09:31:47.47Z</time>
      </trkpt>
      <trkpt lat="44.19305" lon="5.05038">
        <ele>372</ele>
        <time>2021-04-30T09:33:32.08Z</time>
      </trkpt>
      <trkpt lat="44.1932" lon="5.05083">
        <ele>374</ele>
        <time>2021-04-30T09:34:26.46Z</time>
      </trkpt>
      <trkpt lat="44.19331" lon="5.05218">
        <ele>379</ele>
        <time>2021-04-30T09:36:55.69Z</time>
      </trkpt>
      <trkpt lat="44.19339" lon="5.0527">
        <ele>382</ele>
        <time>2021-04-30T09:37:57.23Z</time>
      </trkpt>
      <trkpt lat="44.19332" lon="5.0535">
        <ele>387</ele>
        <time>2021-04-30T09:39:29.38Z</time>
      </trkpt>
      <trkpt lat="44.19339" lon="5.05376">
        <ele>389</ele>
        <time>2021-04-30T09:39:59.31Z</time>
      </trkpt>
      <trkpt lat="44.19323" lon="5.05382">
        <ele>390</ele>
        <time>2021-04-30T09:40:23.66Z</time>
      </trkpt>
      <trkpt lat="44.19286" lon="5.05458">
        <ele>390</ele>
        <time>2021-04-30T09:41:54.36Z</time>
      </trkpt>
      <trkpt lat="44.19255" lon="5.05495">
        <ele>389</ele>
        <time>2021-04-30T09:42:50.26Z</time>
      </trkpt>
      <trkpt lat="44.19227" lon="5.05549">
        <ele>390</ele>
        <time>2021-04-30T09:44:02.07Z</time>
      </trkpt>
      <trkpt lat="44.19229" lon="5.05583">
        <ele>392</ele>
        <time>2021-04-30T09:44:50.37Z</time>
      </trkpt>
      <trkpt lat="44.19266" lon="5.05616">
        <ele>400</ele>
        <time>2021-04-30T09:46:44.97Z</time>
      </trkpt>
      <trkpt lat="44.19279" lon="5.05633">
        <ele>404</ele>
        <time>2021-04-30T09:47:30.14Z</time>
      </trkpt>
      <trkpt lat="44.19287" lon="5.05665">
        <ele>412</ele>
        <time>2021-04-30T09:49:05.93Z</time>
      </trkpt>
      <trkpt lat="44.19301" lon="5.05669">
        <ele>417</ele>
        <time>2021-04-30T09:50:01.62Z</time>
      </trkpt>
      <trkpt lat="44.19317" lon="5.05664">
        <ele>423</ele>
        <time>2021-04-30T09:51:03.59Z</time>
      </trkpt>
      <trkpt lat="44.19321" lon="5.05669">
        <ele>425</ele>
        <time>2021-04-30T09:51:23.58Z</time>
      </trkpt>
      <trkpt lat="44.19391" lon="5.05632">
        <ele>450</ele>
        <time>2021-04-30T09:55:19.26Z</time>
      </trkpt>
      <trkpt lat="44.19451" lon="5.05677">
        <ele>465</ele>
        <time>2021-04-30T09:58:01.89Z</time>
      </trkpt>
      <trkpt lat="44.19485" lon="5.05706">
        <ele>472</ele>
        <time>2021-04-30T09:59:14.82Z</time>
      </trkpt>
      <trkpt lat="44.1953" lon="5.0576">
        <ele>478</ele>
        <time>2021-04-30T10:00:45.87Z</time>
      </trkpt>
      <trkpt lat="44.19555" lon="5.05778">
        <ele>477</ele>
        <time>2021-04-30T10:01:25.22Z</time>
      </trkpt>
      <trkpt lat="44.19568" lon="5.05772">
        <ele>475</ele>
        <time>2021-04-30T10:01:44.93Z</time>
      </trkpt>
      <trkpt lat="44.19555" lon="5.05706">
        <ele>472</ele>
        <time>2021-04-30T10:02:54.06Z</time>
      </trkpt>
      <trkpt lat="44.19561" lon="5.05576">
        <ele>477</ele>
        <time>2021-04-30T10:05:19.72Z</time>
      </trkpt>
      <trkpt lat="44.19555" lon="5.05478">
        <ele>483</ele>
        <time>2021-04-30T10:07:12.75Z</time>
      </trkpt>
      <trkpt lat="44.1956" lon="5.05432">
        <ele>486</ele>
        <time>2021-04-30T10:07:59.04Z</time>
      </trkpt>
      <trkpt lat="44.1958" lon="5.05428">
        <ele>488</ele>
        <time>2021-04-30T10:08:26.69Z</time>
      </trkpt>
      <trkpt lat="44.1958" lon="5.05237">
        <ele>480</ele>
        <time>2021-04-30T10:11:39.74Z</time>
      </trkpt>
      <trkpt lat="44.19591" lon="5.05197">
        <ele>476</ele>
        <time>2021-04-30T10:12:25.85Z</time>
      </trkpt>
      <trkpt lat="44.19611" lon="5.0516">
        <ele>473</ele>
        <time>2021-04-30T10:13:12.93Z</time>
      </trkpt>
      <trkpt lat="44.19643" lon="5.05136">
        <ele>471</ele>
        <time>2021-04-30T10:14:02.50Z</time>
      </trkpt>
      <trkpt lat="44.19665" lon="5.0511">
        <ele>470</ele>
        <time>2021-04-30T10:14:43.23Z</time>
      </trkpt>
      <trkpt lat="44.19747" lon="5.04998">
        <ele>461</ele>
        <time>2021-04-30T10:17:21.31Z</time>
      </trkpt>
      <trkpt lat="44.19824" lon="5.04919">
        <ele>460</ele>
        <time>2021-04-30T10:19:33.38Z</time>
      </trkpt>
      <trkpt lat="44.19855" lon="5.04874">
        <ele>460</ele>
        <time>2021-04-30T10:20:35.03Z</time>
      </trkpt>
      <trkpt lat="44.1989" lon="5.04751">
        <ele>459</ele>
        <time>2021-04-30T10:22:46.31Z</time>
      </trkpt>
      <trkpt lat="44.19917" lon="5.04714">
        <ele>459</ele>
        <time>2021-04-30T10:23:39.65Z</time>
      </trkpt>
      <trkpt lat="44.20003" lon="5.04677">
        <ele>454</ele>
        <time>2021-04-30T10:25:47.35Z</time>
      </trkpt>
      <trkpt lat="44.2008" lon="5.04656">
        <ele>446</ele>
        <time>2021-04-30T10:27:40.61Z</time>
      </trkpt>
      <trkpt lat="44.20169" lon="5.04613">
        <ele>439</ele>
        <time>2021-04-30T10:29:53.11Z</time>
      </trkpt>
      <trkpt lat="44.20215" lon="5.046">
        <ele>436</ele>
        <time>2021-04-30T10:31:03.01Z</time>
      </trkpt>
      <trkpt lat="44.20293" lon="5.04598">
        <ele>425</ele>
        <time>2021-04-30T10:33:06.51Z</time>
      </trkpt>
      <trkpt lat="44.20328" lon="5.04575">
        <ele>418</ele>
        <time>2021-04-30T10:34:01.18Z</time>
      </trkpt>
      <trkpt lat="44.2033" lon="5.04563">
        <ele>417</ele>
        <time>2021-04-30T10:34:14.97Z</time>
      </trkpt>
      <trkpt lat="44.20289" lon="5.04384">
        <ele>410</ele>
        <time>2021-04-30T10:37:21.44Z</time>
      </trkpt>
      <trkpt lat="44.20286" lon="5.04355">
        <ele>409</ele>
        <time>2021-04-30T10:37:50.74Z</time>
      </trkpt>
      <trkpt lat="44.20306" lon="5.04314">
        <ele>407</ele>
        <time>2021-04-30T10:38:39.39Z</time>
      </trkpt>
      <trkpt lat="44.20334" lon="5.04186">
        <ele>401</ele>
        <time>2021-04-30T10:40:52.26Z</time>
      </trkpt>
      <trkpt lat="44.20378" lon="5.04159">
        <ele>400</ele>
        <time>2021-04-30T10:41:58.05Z</time>
      </trkpt>
      <trkpt lat="44.2041" lon="5.04105">
        <ele>400</ele>
        <time>2021-04-30T10:43:07.81Z</time>
      </trkpt>
      <trkpt lat="44.20426" lon="5.04054">
        <ele>400</ele>
        <time>2021-04-30T10:44:03.33Z</time>
      </trkpt>
      <trkpt lat="44.20425" lon="5.0404">
        <ele>400</ele>
        <time>2021-04-30T10:44:17.55Z</time>
      </trkpt>
      <trkpt lat="44.2041" lon="5.04015">
        <ele>400</ele>
        <time>2021-04-30T10:44:52.37Z</time>
      </trkpt>
      <trkpt lat="44.20404" lon="5.0398">
        <ele>402</ele>
        <time>2021-04-30T10:45:34.01Z</time>
      </trkpt>
      <trkpt lat="44.20414" lon="5.03933">
        <ele>406</ele>
        <time>2021-04-30T10:46:40.33Z</time>
      </trkpt>
      <trkpt lat="44.20429" lon="5.03917">
        <ele>409</ele>
        <time>2021-04-30T10:47:13.32Z</time>
      </trkpt>
      <trkpt lat="44.20436" lon="5.03901">
        <ele>411</ele>
        <time>2021-04-30T10:47:36.10Z</time>
      </trkpt>
      <trkpt lat="44.20537" lon="5.03825">
        <ele>422</ele>
        <time>2021-04-30T10:50:32.41Z</time>
      </trkpt>
      <trkpt lat="44.20547" lon="5.03803">
        <ele>422</ele>
        <time>2021-04-30T10:51:00.82Z</time>
      </trkpt>
      <trkpt lat="44.20553" lon="5.03729">
        <ele>423</ele>
        <time>2021-04-30T10:52:14.47Z</time>
      </trkpt>
      <trkpt lat="44.20563" lon="5.03704">
        <ele>424</ele>
        <time>2021-04-30T10:52:42.88Z</time>
      </trkpt>
      <trkpt lat="44.2066" lon="5.03632">
        <ele>421</ele>
        <time>2021-04-30T10:55:14.69Z</time>
      </trkpt>
      <trkpt lat="44.20709" lon="5.03631">
        <ele>416</ele>
        <time>2021-04-30T10:56:27.68Z</time>
      </trkpt>
      <trkpt lat="44.20763" lon="5.03619">
        <ele>410</ele>
        <time>2021-04-30T10:57:48.64Z</time>
      </trkpt>
      <trkpt lat="44.20841" lon="5.03622">
        <ele>402</ele>
        <time>2021-04-30T10:59:36.09Z</time>
      </trkpt>
      <trkpt lat="44.20981" lon="5.03597">
        <ele>398</ele>
        <time>2021-04-30T11:02:49.92Z</time>
      </trkpt>
      <trkpt lat="44.2113" lon="5.03515">
        <ele>387</ele>
        <time>2021-04-30T11:06:39.79Z</time>
      </trkpt>
      <trkpt lat="44.21159" lon="5.03532">
        <ele>382</ele>
        <time>2021-04-30T11:07:29.45Z</time>
      </trkpt>
      <trkpt lat="44.212" lon="5.03578">
        <ele>374</ele>
        <time>2021-04-30T11:08:54.52Z</time>
      </trkpt>
      <trkpt lat="44.21223" lon="5.03585">
        <ele>370</ele>
        <time>2021-04-30T11:09:30.83Z</time>
      </trkpt>
      <trkpt lat="44.21253" lon="5.0357">
        <ele>366</ele>
        <time>2021-04-30T11:10:15.52Z</time>
      </trkpt>
      <trkpt lat="44.21307" lon="5.03507">
        <ele>362</ele>
        <time>2021-04-30T11:11:53.17Z</time>
      </trkpt>
      <trkpt lat="44.21299" lon="5.03476">
        <ele>362</ele>
        <time>2021-04-30T11:12:25.61Z</time>
      </trkpt>
      <trkpt lat="44.21328" lon="5.03421">
        <ele>360</ele>
        <time>2021-04-30T11:13:34.97Z</time>
      </trkpt>
      <trkpt lat="44.21335" lon="5.03398">
        <ele>359</ele>
        <time>2021-04-30T11:14:00.97Z</time>
      </trkpt>
      <trkpt lat="44.21329" lon="5.03369">
        <ele>356</ele>
        <time>2021-04-30T11:14:34.40Z</time>
      </trkpt>
      <trkpt lat="44.21347" lon="5.0327">
        <ele>344</ele>
        <time>2021-04-30T11:16:34.92Z</time>
      </trkpt>
      <trkpt lat="44.21367" lon="5.03208">
        <ele>336</ele>
        <time>2021-04-30T11:17:50.60Z</time>
      </trkpt>
      <trkpt lat="44.21373" lon="5.03164">
        <ele>332</ele>
        <time>2021-04-30T11:18:39.45Z</time>
      </trkpt>
      <trkpt lat="44.21361" lon="5.03117">
        <ele>327</ele>
        <time>2021-04-30T11:19:42.32Z</time>
      </trkpt>
      <trkpt lat="44.21325" lon="5.03059">
        <ele>315</ele>
        <time>2021-04-30T11:21:33.02Z</time>
      </trkpt>
      <trkpt lat="44.21301" lon="5.03044">
        <ele>308</ele>
        <time>2021-04-30T11:22:13.66Z</time>
      </trkpt>
      <trkpt lat="44.21316" lon="5.0304">
        <ele>305</ele>
        <time>2021-04-30T11:22:37.66Z</time>
      </trkpt>
      <trkpt lat="44.2132" lon="5.03033">
        <ele>304</ele>
        <time>2021-04-30T11:22:48.09Z</time>
      </trkpt>
      <trkpt lat="44.21352" lon="5.03042">
        <ele>303</ele>
        <time>2021-04-30T11:23:40.73Z</time>
      </trkpt>
      <trkpt lat="44.21441" lon="5.031">
        <ele>317</ele>
        <time>2021-04-30T11:26:15.90Z</time>
      </trkpt>
      <trkpt lat="44.21444" lon="5.03092">
        <ele>317</ele>
        <time>2021-04-30T11:26:25.01Z</time>
      </trkpt>
      <trkpt lat="44.21435" lon="5.03001">
        <ele>316</ele>
        <time>2021-04-30T11:27:56.55Z</time>
      </trkpt>
      <trkpt lat="44.2141" lon="5.02987">
        <ele>315</ele>
        <time>2021-04-30T11:28:33.39Z</time>
      </trkpt>
      <trkpt lat="44.21392" lon="5.02963">
        <ele>314</ele>
        <time>2021-04-30T11:29:08.01Z</time>
      </trkpt>
      <trkpt lat="44.21381" lon="5.02913">
        <ele>314</ele>
        <time>2021-04-30T11:30:04.35Z</time>
      </trkpt>
      <trkpt lat="44.21358" lon="5.0288">
        <ele>317</ele>
        <time>2021-04-30T11:31:05.74Z</time>
      </trkpt>
      <trkpt lat="44.21369" lon="5.02874">
        <ele>319</ele>
        <time>2021-04-30T11:31:28.55Z</time>
      </trkpt>
      <trkpt lat="44.21416" lon="5.02888">
        <ele>326</ele>
        <time>2021-04-30T11:32:59.76Z</time>
      </trkpt>
      <trkpt lat="44.21426" lon="5.02887">
        <ele>327</ele>
        <time>2021-04-30T11:33:16.91Z</time>
      </trkpt>
      <trkpt lat="44.21432" lon="5.02867">
        <ele>329</ele>
        <time>2021-04-30T11:33:43.32Z</time>
      </trkpt>
      <trkpt lat="44.21411" lon="5.02787">
        <ele>335</ele>
        <time>2021-04-30T11:35:27.14Z</time>
      </trkpt>
      <trkpt lat="44.21344" lon="5.02685">
        <ele>346</ele>
        <time>2021-04-30T11:38:23.78Z</time>
      </trkpt>
      <trkpt lat="44.21364" lon="5.02661">
        <ele>350</ele>
        <time>2021-04-30T11:39:28.09Z</time>
      </trkpt>
      <trkpt lat="44.21425" lon="5.02648">
        <ele>365</ele>
        <time>2021-04-30T11:43:16.46Z</time>
      </trkpt>
      <trkpt lat="44.21473" lon="5.0265">
        <ele>386</ele>
        <time>2021-04-30T11:47:22.92Z</time>
      </trkpt>
      <trkpt lat="44.21492" lon="5.02613">
        <ele>402</ele>
        <time>2021-04-30T11:49:19.48Z</time>
      </trkpt>
      <trkpt lat="44.21534" lon="5.02585">
        <ele>411</ele>
        <time>2021-04-30T11:50:24.45Z</time>
      </trkpt>
      <trkpt lat="44.21595" lon="5.02604">
        <ele>395</ele>
        <time>2021-04-30T11:53:16.87Z</time>
      </trkpt>
      <trkpt lat="44.21605" lon="5.02617">
        <ele>389</ele>
        <time>2021-04-30T11:53:54.03Z</time>
      </trkpt>
      <trkpt lat="44.217" lon="5.02633">
        <ele>352</ele>
        <time>2021-04-30T11:58:31.31Z</time>
      </trkpt>
      <trkpt lat="44.21732" lon="5.02645">
        <ele>342</ele>
        <time>2021-04-30T11:59:42.43Z</time>
      </trkpt>
      <trkpt lat="44.21745" lon="5.02663">
        <ele>337</ele>
        <time>2021-04-30T12:00:21.33Z</time>
      </trkpt>
      <trkpt lat="44.21779" lon="5.02672">
        <ele>330</ele>
        <time>2021-04-30T12:01:15.68Z</time>
      </trkpt>
      <trkpt lat="44.21785" lon="5.02651">
        <ele>327</ele>
        <time>2021-04-30T12:01:40.99Z</time>
      </trkpt>
      <trkpt lat="44.21766" lon="5.0259">
        <ele>322</ele>
        <time>2021-04-30T12:02:50.77Z</time>
      </trkpt>
      <trkpt lat="44.21772" lon="5.02549">
        <ele>319</ele>
        <time>2021-04-30T12:03:36.19Z</time>
      </trkpt>
      <trkpt lat="44.21785" lon="5.02513">
        <ele>315</ele>
        <time>2021-04-30T12:04:20.32Z</time>
      </trkpt>
      <trkpt lat="44.21762" lon="5.02478">
        <ele>310</ele>
        <time>2021-04-30T12:05:16.25Z</time>
      </trkpt>
      <trkpt lat="44.21746" lon="5.02447">
        <ele>305</ele>
        <time>2021-04-30T12:06:09.79Z</time>
      </trkpt>
      <trkpt lat="44.21736" lon="5.02395">
        <ele>295</ele>
        <time>2021-04-30T12:07:23.58Z</time>
      </trkpt>
      <trkpt lat="44.21725" lon="5.02374">
        <ele>291</ele>
        <time>2021-04-30T12:08:00.86Z</time>
      </trkpt>
      <trkpt lat="44.21682" lon="5.02344">
        <ele>282</ele>
        <time>2021-04-30T12:09:08.95Z</time>
      </trkpt>
      <trkpt lat="44.2164" lon="5.02289">
        <ele>282</ele>
        <time>2021-04-30T12:10:29.97Z</time>
      </trkpt>
      <trkpt lat="44.21588" lon="5.02258">
        <ele>283</ele>
        <time>2021-04-30T12:11:48.23Z</time>
      </trkpt>
      <trkpt lat="44.21534" lon="5.02255">
        <ele>279</ele>
        <time>2021-04-30T12:13:06.37Z</time>
      </trkpt>
      <trkpt lat="44.21487" lon="5.02211">
        <ele>273</ele>
        <time>2021-04-30T12:14:29.58Z</time>
      </trkpt>
      <trkpt lat="44.21462" lon="5.02205">
        <ele>270</ele>
        <time>2021-04-30T12:15:07.96Z</time>
      </trkpt>
      <trkpt lat="44.21427" lon="5.02238">
        <ele>265</ele>
        <time>2021-04-30T12:16:11.55Z</time>
      </trkpt>
      <trkpt lat="44.21404" lon="5.02254">
        <ele>262</ele>
        <time>2021-04-30T12:16:50.92Z</time>
      </trkpt>
      <trkpt lat="44.21365" lon="5.02246">
        <ele>256</ele>
        <time>2021-04-30T12:18:03.03Z</time>
      </trkpt>
      <trkpt lat="44.21313" lon="5.02169">
        <ele>239</ele>
        <time>2021-04-30T12:20:11.32Z</time>
      </trkpt>
      <trkpt lat="44.21288" lon="5.02141">
        <ele>237</ele>
        <time>2021-04-30T12:21:03.68Z</time>
      </trkpt>
      <trkpt lat="44.21104" lon="5.02167">
        <ele>258</ele>
        <time>2021-04-30T12:26:02.23Z</time>
      </trkpt>
      <trkpt lat="44.21073" lon="5.02165">
        <ele>257</ele>
        <time>2021-04-30T12:26:44.20Z</time>
      </trkpt>
      <trkpt lat="44.2104" lon="5.02176">
        <ele>258</ele>
        <time>2021-04-30T12:27:32.16Z</time>
      </trkpt>
      <trkpt lat="44.20936" lon="5.02145">
        <ele>246</ele>
        <time>2021-04-30T12:30:13.01Z</time>
      </trkpt>
      <trkpt lat="44.20909" lon="5.02142">
        <ele>242</ele>
        <time>2021-04-30T12:30:51.28Z</time>
      </trkpt>
      <trkpt lat="44.20841" lon="5.02159">
        <ele>238</ele>
        <time>2021-04-30T12:32:31.46Z</time>
      </trkpt>
      <trkpt lat="44.20794" lon="5.02195">
        <ele>231</ele>
        <time>2021-04-30T12:33:54.04Z</time>
      </trkpt>
      <trkpt lat="44.20776" lon="5.02234">
        <ele>226</ele>
        <time>2021-04-30T12:34:43.51Z</time>
      </trkpt>
      <trkpt lat="44.20777" lon="5.0227">
        <ele>224</ele>
        <time>2021-04-30T12:35:22.49Z</time>
      </trkpt>
      <trkpt lat="44.20763" lon="5.02308">
        <ele>228</ele>
        <time>2021-04-30T12:36:24.85Z</time>
      </trkpt>
      <trkpt lat="44.20759" lon="5.02346">
        <ele>233</ele>
        <time>2021-04-30T12:37:20.56Z</time>
      </trkpt>
      <trkpt lat="44.20738" lon="5.02331">
        <ele>236</ele>
        <time>2021-04-30T12:38:04.80Z</time>
      </trkpt>
      <trkpt lat="44.20732" lon="5.02313">
        <ele>237</ele>
        <time>2021-04-30T12:38:28.32Z</time>
      </trkpt>
    </trkseg>
  </trk>
</gpx>